sensor_id;sensor_type;location;lat;lon;timestamp;P1;durP1;ratioP1;P2;durP2;ratioP2
15633;SDS011;14654;48.898;8.308;2022-12-18T00:01:57;56.33;;;38.53;;
15633;SDS011;14654;48.898;8.308;2022-12-18T00:04:26;59.00;;;39.37;;
15633;SDS011;14654;48.898;8.308;2022-12-18T00:06:52;52.23;;;36.77;;
15633;SDS011;14654;48.898;8.308;2022-12-18T00:09:18;61.90;;;40.47;;
15633;SDS011;14654;48.898;8.308;2022-12-18T00:11:44;51.60;;;36.70;;
15633;SDS011;14654;48.898;8.308;2022-12-18T00:14:10;55.03;;;36.30;;
15633;SDS011;14654;48.898;8.308;2022-12-18T00:16:36;53.30;;;36.10;;
15633;SDS011;14654;48.898;8.308;2022-12-18T00:19:03;50.30;;;35.50;;
15633;SDS011;14654;48.898;8.308;2022-12-18T00:21:31;48.27;;;35.23;;
15633;SDS011;14654;48.898;8.308;2022-12-18T00:23:57;48.70;;;34.43;;
15633;SDS011;14654;48.898;8.308;2022-12-18T00:26:30;44.37;;;33.37;;
15633;SDS011;14654;48.898;8.308;2022-12-18T00:28:58;48.13;;;33.40;;
15633;SDS011;14654;48.898;8.308;2022-12-18T00:31:25;50.60;;;34.63;;
15633;SDS011;14654;48.898;8.308;2022-12-18T00:33:50;45.83;;;32.43;;
15633;SDS011;14654;48.898;8.308;2022-12-18T00:36:17;44.97;;;32.30;;
15633;SDS011;14654;48.898;8.308;2022-12-18T00:38:44;47.73;;;32.63;;
15633;SDS011;14654;48.898;8.308;2022-12-18T00:41:11;44.40;;;31.47;;
15633;SDS011;14654;48.898;8.308;2022-12-18T00:43:38;43.43;;;32.07;;
15633;SDS011;14654;48.898;8.308;2022-12-18T00:46:04;47.90;;;34.43;;
15633;SDS011;14654;48.898;8.308;2022-12-18T00:48:29;52.40;;;35.80;;
15633;SDS011;14654;48.898;8.308;2022-12-18T00:50:55;47.97;;;36.03;;
15633;SDS011;14654;48.898;8.308;2022-12-18T00:53:20;53.97;;;38.50;;
15633;SDS011;14654;48.898;8.308;2022-12-18T00:55:46;52.40;;;37.20;;
15633;SDS011;14654;48.898;8.308;2022-12-18T00:58:12;51.93;;;37.10;;
15633;SDS011;14654;48.898;8.308;2022-12-18T01:00:39;55.07;;;38.17;;
15633;SDS011;14654;48.898;8.308;2022-12-18T01:03:05;52.07;;;36.27;;
15633;SDS011;14654;48.898;8.308;2022-12-18T01:05:30;54.50;;;38.33;;
15633;SDS011;14654;48.898;8.308;2022-12-18T01:07:56;51.20;;;33.83;;
15633;SDS011;14654;48.898;8.308;2022-12-18T01:10:22;49.67;;;36.00;;
15633;SDS011;14654;48.898;8.308;2022-12-18T01:12:48;52.93;;;37.83;;
15633;SDS011;14654;48.898;8.308;2022-12-18T01:15:14;51.13;;;35.97;;
15633;SDS011;14654;48.898;8.308;2022-12-18T01:17:40;50.67;;;36.93;;
15633;SDS011;14654;48.898;8.308;2022-12-18T01:20:06;53.97;;;37.40;;
15633;SDS011;14654;48.898;8.308;2022-12-18T01:22:33;54.57;;;38.23;;
15633;SDS011;14654;48.898;8.308;2022-12-18T01:24:58;57.80;;;39.07;;
15633;SDS011;14654;48.898;8.308;2022-12-18T01:27:24;49.63;;;35.20;;
15633;SDS011;14654;48.898;8.308;2022-12-18T01:29:49;46.13;;;33.37;;
15633;SDS011;14654;48.898;8.308;2022-12-18T01:32:14;46.63;;;32.77;;
15633;SDS011;14654;48.898;8.308;2022-12-18T01:34:40;47.73;;;32.37;;
15633;SDS011;14654;48.898;8.308;2022-12-18T01:37:05;47.47;;;32.93;;
15633;SDS011;14654;48.898;8.308;2022-12-18T01:39:31;43.90;;;31.27;;
15633;SDS011;14654;48.898;8.308;2022-12-18T01:41:58;46.40;;;31.50;;
15633;SDS011;14654;48.898;8.308;2022-12-18T01:47:27;49.83;;;35.63;;
15633;SDS011;14654;48.898;8.308;2022-12-18T01:49:54;51.10;;;36.27;;
15633;SDS011;14654;48.898;8.308;2022-12-18T01:52:21;53.47;;;36.43;;
15633;SDS011;14654;48.898;8.308;2022-12-18T01:54:47;49.57;;;36.97;;
15633;SDS011;14654;48.898;8.308;2022-12-18T01:57:15;49.47;;;35.93;;
15633;SDS011;14654;48.898;8.308;2022-12-18T01:59:42;50.10;;;35.30;;
15633;SDS011;14654;48.898;8.308;2022-12-18T02:02:11;49.13;;;35.57;;
15633;SDS011;14654;48.898;8.308;2022-12-18T02:04:37;53.10;;;36.40;;
15633;SDS011;14654;48.898;8.308;2022-12-18T02:12:49;48.27;;;33.87;;
15633;SDS011;14654;48.898;8.308;2022-12-18T02:18:03;50.03;;;34.63;;
15633;SDS011;14654;48.898;8.308;2022-12-18T02:20:36;48.23;;;33.93;;
15633;SDS011;14654;48.898;8.308;2022-12-18T02:23:26;49.77;;;34.77;;
15633;SDS011;14654;48.898;8.308;2022-12-18T02:26:24;47.53;;;33.50;;
15633;SDS011;14654;48.898;8.308;2022-12-18T02:28:55;50.93;;;32.63;;
15633;SDS011;14654;48.898;8.308;2022-12-18T02:31:26;47.77;;;34.70;;
15633;SDS011;14654;48.898;8.308;2022-12-18T02:33:57;47.40;;;32.87;;
15633;SDS011;14654;48.898;8.308;2022-12-18T02:36:26;47.20;;;32.47;;
15633;SDS011;14654;48.898;8.308;2022-12-18T02:38:53;47.67;;;33.77;;
15633;SDS011;14654;48.898;8.308;2022-12-18T02:41:20;48.83;;;33.80;;
15633;SDS011;14654;48.898;8.308;2022-12-18T02:43:53;46.07;;;31.83;;
15633;SDS011;14654;48.898;8.308;2022-12-18T02:48:55;47.17;;;33.27;;
15633;SDS011;14654;48.898;8.308;2022-12-18T02:51:39;49.90;;;33.77;;
15633;SDS011;14654;48.898;8.308;2022-12-18T02:54:35;48.47;;;33.67;;
15633;SDS011;14654;48.898;8.308;2022-12-18T02:57:20;49.60;;;33.57;;
15633;SDS011;14654;48.898;8.308;2022-12-18T02:59:59;48.93;;;33.17;;
15633;SDS011;14654;48.898;8.308;2022-12-18T03:05:18;50.07;;;32.93;;
15633;SDS011;14654;48.898;8.308;2022-12-18T03:08:08;48.50;;;33.77;;
15633;SDS011;14654;48.898;8.308;2022-12-18T03:10:41;49.90;;;32.80;;
15633;SDS011;14654;48.898;8.308;2022-12-18T03:13:15;45.60;;;32.00;;
15633;SDS011;14654;48.898;8.308;2022-12-18T03:15:46;40.03;;;29.33;;
15633;SDS011;14654;48.898;8.308;2022-12-18T03:18:18;35.83;;;27.07;;
15633;SDS011;14654;48.898;8.308;2022-12-18T03:20:55;36.87;;;25.47;;
15633;SDS011;14654;48.898;8.308;2022-12-18T03:23:25;37.33;;;25.83;;
15633;SDS011;14654;48.898;8.308;2022-12-18T03:25:56;37.17;;;25.77;;
15633;SDS011;14654;48.898;8.308;2022-12-18T03:28:23;37.07;;;25.73;;
15633;SDS011;14654;48.898;8.308;2022-12-18T03:30:51;34.90;;;25.13;;
15633;SDS011;14654;48.898;8.308;2022-12-18T03:33:23;35.20;;;25.50;;
15633;SDS011;14654;48.898;8.308;2022-12-18T03:35:52;37.00;;;25.13;;
15633;SDS011;14654;48.898;8.308;2022-12-18T03:38:18;34.87;;;24.50;;
15633;SDS011;14654;48.898;8.308;2022-12-18T03:43:19;35.47;;;25.53;;
15633;SDS011;14654;48.898;8.308;2022-12-18T03:45:58;39.33;;;26.80;;
15633;SDS011;14654;48.898;8.308;2022-12-18T03:48:41;39.40;;;27.87;;
15633;SDS011;14654;48.898;8.308;2022-12-18T03:54:09;33.70;;;25.17;;
15633;SDS011;14654;48.898;8.308;2022-12-18T03:56:38;38.57;;;26.30;;
15633;SDS011;14654;48.898;8.308;2022-12-18T03:59:07;36.13;;;25.37;;
15633;SDS011;14654;48.898;8.308;2022-12-18T04:01:37;42.77;;;29.03;;
15633;SDS011;14654;48.898;8.308;2022-12-18T04:04:06;39.80;;;28.03;;
15633;SDS011;14654;48.898;8.308;2022-12-18T04:06:34;40.27;;;28.20;;
15633;SDS011;14654;48.898;8.308;2022-12-18T04:09:01;36.90;;;25.77;;
15633;SDS011;14654;48.898;8.308;2022-12-18T04:11:26;38.77;;;27.57;;
15633;SDS011;14654;48.898;8.308;2022-12-18T04:13:54;36.47;;;26.70;;
15633;SDS011;14654;48.898;8.308;2022-12-18T04:16:21;39.70;;;27.80;;
15633;SDS011;14654;48.898;8.308;2022-12-18T04:18:47;39.50;;;27.90;;
15633;SDS011;14654;48.898;8.308;2022-12-18T04:21:12;44.33;;;30.97;;
15633;SDS011;14654;48.898;8.308;2022-12-18T04:23:37;46.90;;;32.10;;
15633;SDS011;14654;48.898;8.308;2022-12-18T04:26:03;45.40;;;31.43;;
15633;SDS011;14654;48.898;8.308;2022-12-18T04:28:28;44.13;;;30.07;;
15633;SDS011;14654;48.898;8.308;2022-12-18T04:30:53;39.30;;;28.10;;
15633;SDS011;14654;48.898;8.308;2022-12-18T04:33:19;43.93;;;29.93;;
15633;SDS011;14654;48.898;8.308;2022-12-18T04:35:44;43.53;;;30.23;;
15633;SDS011;14654;48.898;8.308;2022-12-18T04:38:10;46.73;;;30.43;;
15633;SDS011;14654;48.898;8.308;2022-12-18T04:40:36;46.67;;;31.97;;
15633;SDS011;14654;48.898;8.308;2022-12-18T04:43:02;47.30;;;31.23;;
15633;SDS011;14654;48.898;8.308;2022-12-18T04:45:28;44.33;;;30.07;;
15633;SDS011;14654;48.898;8.308;2022-12-18T04:47:54;42.33;;;29.37;;
15633;SDS011;14654;48.898;8.308;2022-12-18T04:50:22;45.17;;;30.60;;
15633;SDS011;14654;48.898;8.308;2022-12-18T04:52:47;49.57;;;32.13;;
15633;SDS011;14654;48.898;8.308;2022-12-18T04:55:13;43.17;;;31.07;;
15633;SDS011;14654;48.898;8.308;2022-12-18T04:57:38;43.67;;;30.23;;
15633;SDS011;14654;48.898;8.308;2022-12-18T05:00:04;46.77;;;30.87;;
15633;SDS011;14654;48.898;8.308;2022-12-18T05:02:31;43.20;;;30.17;;
15633;SDS011;14654;48.898;8.308;2022-12-18T05:04:56;40.70;;;29.37;;
15633;SDS011;14654;48.898;8.308;2022-12-18T05:07:22;41.27;;;29.33;;
15633;SDS011;14654;48.898;8.308;2022-12-18T05:09:48;44.17;;;30.30;;
15633;SDS011;14654;48.898;8.308;2022-12-18T05:12:13;45.53;;;30.40;;
15633;SDS011;14654;48.898;8.308;2022-12-18T05:14:39;43.77;;;29.73;;
15633;SDS011;14654;48.898;8.308;2022-12-18T05:17:04;47.10;;;30.93;;
15633;SDS011;14654;48.898;8.308;2022-12-18T05:19:29;43.80;;;28.73;;
15633;SDS011;14654;48.898;8.308;2022-12-18T05:21:55;44.83;;;28.60;;
15633;SDS011;14654;48.898;8.308;2022-12-18T05:24:20;44.90;;;29.50;;
15633;SDS011;14654;48.898;8.308;2022-12-18T05:26:46;43.63;;;30.30;;
15633;SDS011;14654;48.898;8.308;2022-12-18T05:29:11;42.93;;;28.87;;
15633;SDS011;14654;48.898;8.308;2022-12-18T05:31:37;46.63;;;30.37;;
15633;SDS011;14654;48.898;8.308;2022-12-18T05:34:03;45.50;;;29.60;;
15633;SDS011;14654;48.898;8.308;2022-12-18T05:36:29;45.23;;;29.33;;
15633;SDS011;14654;48.898;8.308;2022-12-18T05:38:54;43.13;;;28.50;;
15633;SDS011;14654;48.898;8.308;2022-12-18T05:41:19;42.23;;;29.23;;
15633;SDS011;14654;48.898;8.308;2022-12-18T05:43:45;46.70;;;31.93;;
15633;SDS011;14654;48.898;8.308;2022-12-18T05:46:14;47.20;;;32.23;;
15633;SDS011;14654;48.898;8.308;2022-12-18T05:48:42;47.23;;;33.20;;
15633;SDS011;14654;48.898;8.308;2022-12-18T05:51:12;51.50;;;33.13;;
15633;SDS011;14654;48.898;8.308;2022-12-18T05:53:39;45.07;;;29.87;;
15633;SDS011;14654;48.898;8.308;2022-12-18T05:56:06;46.47;;;30.63;;
15633;SDS011;14654;48.898;8.308;2022-12-18T05:58:37;45.60;;;30.10;;
15633;SDS011;14654;48.898;8.308;2022-12-18T06:01:09;42.80;;;30.90;;
15633;SDS011;14654;48.898;8.308;2022-12-18T06:03:35;47.07;;;30.70;;
15633;SDS011;14654;48.898;8.308;2022-12-18T06:06:01;46.73;;;32.97;;
15633;SDS011;14654;48.898;8.308;2022-12-18T06:08:26;47.47;;;29.70;;
15633;SDS011;14654;48.898;8.308;2022-12-18T06:10:52;49.80;;;32.47;;
15633;SDS011;14654;48.898;8.308;2022-12-18T06:13:17;49.47;;;31.43;;
15633;SDS011;14654;48.898;8.308;2022-12-18T06:15:43;44.73;;;31.67;;
15633;SDS011;14654;48.898;8.308;2022-12-18T06:18:08;44.33;;;29.47;;
15633;SDS011;14654;48.898;8.308;2022-12-18T06:20:34;45.50;;;29.33;;
15633;SDS011;14654;48.898;8.308;2022-12-18T06:23:01;44.10;;;29.37;;
15633;SDS011;14654;48.898;8.308;2022-12-18T06:25:26;44.20;;;30.37;;
15633;SDS011;14654;48.898;8.308;2022-12-18T06:27:52;46.40;;;30.60;;
15633;SDS011;14654;48.898;8.308;2022-12-18T06:30:17;47.00;;;32.30;;
15633;SDS011;14654;48.898;8.308;2022-12-18T06:32:42;43.93;;;30.33;;
15633;SDS011;14654;48.898;8.308;2022-12-18T06:35:08;48.10;;;30.93;;
15633;SDS011;14654;48.898;8.308;2022-12-18T06:37:33;47.53;;;31.27;;
15633;SDS011;14654;48.898;8.308;2022-12-18T06:39:58;43.83;;;29.80;;
15633;SDS011;14654;48.898;8.308;2022-12-18T06:42:25;44.87;;;29.37;;
15633;SDS011;14654;48.898;8.308;2022-12-18T06:44:51;44.40;;;30.53;;
15633;SDS011;14654;48.898;8.308;2022-12-18T06:47:16;42.13;;;29.47;;
15633;SDS011;14654;48.898;8.308;2022-12-18T06:49:42;42.57;;;28.83;;
15633;SDS011;14654;48.898;8.308;2022-12-18T06:52:08;40.10;;;27.77;;
15633;SDS011;14654;48.898;8.308;2022-12-18T06:54:33;41.63;;;29.37;;
15633;SDS011;14654;48.898;8.308;2022-12-18T06:56:58;46.30;;;31.43;;
15633;SDS011;14654;48.898;8.308;2022-12-18T06:59:24;40.10;;;28.63;;
15633;SDS011;14654;48.898;8.308;2022-12-18T07:01:49;43.30;;;28.77;;
15633;SDS011;14654;48.898;8.308;2022-12-18T07:04:15;44.23;;;29.27;;
15633;SDS011;14654;48.898;8.308;2022-12-18T07:06:40;39.37;;;27.17;;
15633;SDS011;14654;48.898;8.308;2022-12-18T07:09:05;42.00;;;28.33;;
15633;SDS011;14654;48.898;8.308;2022-12-18T07:11:32;42.23;;;28.70;;
15633;SDS011;14654;48.898;8.308;2022-12-18T07:14:01;42.03;;;28.07;;
15633;SDS011;14654;48.898;8.308;2022-12-18T07:16:27;45.60;;;29.67;;
15633;SDS011;14654;48.898;8.308;2022-12-18T07:18:55;41.60;;;28.43;;
15633;SDS011;14654;48.898;8.308;2022-12-18T07:21:21;41.03;;;28.47;;
15633;SDS011;14654;48.898;8.308;2022-12-18T07:23:48;42.03;;;27.43;;
15633;SDS011;14654;48.898;8.308;2022-12-18T07:26:14;44.30;;;28.60;;
15633;SDS011;14654;48.898;8.308;2022-12-18T07:28:40;39.93;;;27.60;;
15633;SDS011;14654;48.898;8.308;2022-12-18T07:31:11;43.30;;;29.47;;
15633;SDS011;14654;48.898;8.308;2022-12-18T07:33:37;39.70;;;27.50;;
15633;SDS011;14654;48.898;8.308;2022-12-18T07:36:03;41.07;;;28.67;;
15633;SDS011;14654;48.898;8.308;2022-12-18T07:38:30;43.43;;;28.37;;
15633;SDS011;14654;48.898;8.308;2022-12-18T07:41:02;44.10;;;29.30;;
15633;SDS011;14654;48.898;8.308;2022-12-18T07:43:29;40.43;;;28.03;;
15633;SDS011;14654;48.898;8.308;2022-12-18T07:45:54;39.23;;;27.90;;
15633;SDS011;14654;48.898;8.308;2022-12-18T07:48:19;40.30;;;27.90;;
15633;SDS011;14654;48.898;8.308;2022-12-18T07:50:45;41.87;;;29.30;;
15633;SDS011;14654;48.898;8.308;2022-12-18T07:53:10;41.43;;;28.70;;
15633;SDS011;14654;48.898;8.308;2022-12-18T07:55:35;40.97;;;27.77;;
15633;SDS011;14654;48.898;8.308;2022-12-18T07:58:04;41.77;;;27.17;;
15633;SDS011;14654;48.898;8.308;2022-12-18T08:00:30;37.40;;;26.40;;
15633;SDS011;14654;48.898;8.308;2022-12-18T08:02:56;39.90;;;26.93;;
15633;SDS011;14654;48.898;8.308;2022-12-18T08:05:22;36.37;;;24.93;;
15633;SDS011;14654;48.898;8.308;2022-12-18T08:07:47;38.40;;;25.53;;
15633;SDS011;14654;48.898;8.308;2022-12-18T08:10:14;36.57;;;25.33;;
15633;SDS011;14654;48.898;8.308;2022-12-18T08:12:39;35.30;;;25.33;;
15633;SDS011;14654;48.898;8.308;2022-12-18T08:15:04;37.97;;;26.13;;
15633;SDS011;14654;48.898;8.308;2022-12-18T08:17:30;39.47;;;26.87;;
15633;SDS011;14654;48.898;8.308;2022-12-18T08:19:55;38.43;;;27.57;;
15633;SDS011;14654;48.898;8.308;2022-12-18T08:22:21;39.40;;;28.17;;
15633;SDS011;14654;48.898;8.308;2022-12-18T08:24:46;48.23;;;33.53;;
15633;SDS011;14654;48.898;8.308;2022-12-18T08:27:11;45.77;;;33.00;;
15633;SDS011;14654;48.898;8.308;2022-12-18T08:29:37;42.37;;;30.00;;
15633;SDS011;14654;48.898;8.308;2022-12-18T08:32:03;40.10;;;29.43;;
15633;SDS011;14654;48.898;8.308;2022-12-18T08:34:28;43.93;;;31.23;;
15633;SDS011;14654;48.898;8.308;2022-12-18T08:36:53;60.77;;;40.83;;
15633;SDS011;14654;48.898;8.308;2022-12-18T08:39:19;44.87;;;31.77;;
15633;SDS011;14654;48.898;8.308;2022-12-18T08:41:44;41.67;;;30.67;;
15633;SDS011;14654;48.898;8.308;2022-12-18T08:44:29;40.57;;;28.70;;
15633;SDS011;14654;48.898;8.308;2022-12-18T08:47:07;39.00;;;27.37;;
15633;SDS011;14654;48.898;8.308;2022-12-18T08:49:33;38.33;;;27.63;;
15633;SDS011;14654;48.898;8.308;2022-12-18T08:51:59;39.50;;;28.03;;
15633;SDS011;14654;48.898;8.308;2022-12-18T08:54:24;37.23;;;27.77;;
15633;SDS011;14654;48.898;8.308;2022-12-18T08:56:50;36.20;;;26.37;;
15633;SDS011;14654;48.898;8.308;2022-12-18T08:59:16;37.30;;;26.30;;
15633;SDS011;14654;48.898;8.308;2022-12-18T09:01:42;35.40;;;26.13;;
15633;SDS011;14654;48.898;8.308;2022-12-18T09:04:11;39.27;;;28.57;;
15633;SDS011;14654;48.898;8.308;2022-12-18T09:06:37;41.03;;;27.17;;
15633;SDS011;14654;48.898;8.308;2022-12-18T09:09:03;37.77;;;28.00;;
15633;SDS011;14654;48.898;8.308;2022-12-18T09:11:29;37.87;;;26.37;;
15633;SDS011;14654;48.898;8.308;2022-12-18T09:13:55;39.30;;;28.60;;
15633;SDS011;14654;48.898;8.308;2022-12-18T09:16:21;35.53;;;26.50;;
15633;SDS011;14654;48.898;8.308;2022-12-18T09:18:48;37.80;;;26.27;;
15633;SDS011;14654;48.898;8.308;2022-12-18T09:21:18;38.97;;;27.27;;
15633;SDS011;14654;48.898;8.308;2022-12-18T09:23:51;35.53;;;26.17;;
15633;SDS011;14654;48.898;8.308;2022-12-18T09:26:23;36.73;;;25.93;;
15633;SDS011;14654;48.898;8.308;2022-12-18T09:28:50;36.43;;;26.50;;
15633;SDS011;14654;48.898;8.308;2022-12-18T09:31:16;34.77;;;26.00;;
15633;SDS011;14654;48.898;8.308;2022-12-18T09:33:43;32.00;;;24.57;;
15633;SDS011;14654;48.898;8.308;2022-12-18T09:36:10;39.93;;;27.97;;
15633;SDS011;14654;48.898;8.308;2022-12-18T09:38:40;36.37;;;27.90;;
15633;SDS011;14654;48.898;8.308;2022-12-18T09:44:03;37.03;;;28.60;;
15633;SDS011;14654;48.898;8.308;2022-12-18T09:46:37;37.73;;;27.37;;
15633;SDS011;14654;48.898;8.308;2022-12-18T09:49:09;36.77;;;25.60;;
15633;SDS011;14654;48.898;8.308;2022-12-18T09:51:40;39.77;;;27.50;;
15633;SDS011;14654;48.898;8.308;2022-12-18T09:54:12;41.83;;;29.37;;
15633;SDS011;14654;48.898;8.308;2022-12-18T09:56:43;39.57;;;27.50;;
15633;SDS011;14654;48.898;8.308;2022-12-18T09:59:15;36.30;;;26.23;;
15633;SDS011;14654;48.898;8.308;2022-12-18T10:01:52;38.87;;;28.67;;
15633;SDS011;14654;48.898;8.308;2022-12-18T10:04:17;41.60;;;29.63;;
15633;SDS011;14654;48.898;8.308;2022-12-18T10:06:46;40.73;;;28.63;;
15633;SDS011;14654;48.898;8.308;2022-12-18T10:19:59;41.00;;;29.57;;
15633;SDS011;14654;48.898;8.308;2022-12-18T10:28:07;38.23;;;27.00;;
15633;SDS011;14654;48.898;8.308;2022-12-18T10:30:37;35.47;;;26.00;;
15633;SDS011;14654;48.898;8.308;2022-12-18T10:33:04;37.43;;;26.27;;
15633;SDS011;14654;48.898;8.308;2022-12-18T10:35:29;34.17;;;25.10;;
15633;SDS011;14654;48.898;8.308;2022-12-18T10:38:05;35.23;;;25.57;;
15633;SDS011;14654;48.898;8.308;2022-12-18T10:40:50;33.23;;;24.13;;
15633;SDS011;14654;48.898;8.308;2022-12-18T10:43:22;33.97;;;24.67;;
15633;SDS011;14654;48.898;8.308;2022-12-18T10:51:46;38.53;;;28.17;;
15633;SDS011;14654;48.898;8.308;2022-12-18T10:56:33;38.60;;;28.23;;
15633;SDS011;14654;48.898;8.308;2022-12-18T10:59:01;36.73;;;26.83;;
15633;SDS011;14654;48.898;8.308;2022-12-18T11:01:27;38.07;;;26.67;;
15633;SDS011;14654;48.898;8.308;2022-12-18T11:06:19;39.33;;;30.30;;
15633;SDS011;14654;48.898;8.308;2022-12-18T11:11:50;37.83;;;28.03;;
15633;SDS011;14654;48.898;8.308;2022-12-18T11:14:20;38.50;;;28.00;;
15633;SDS011;14654;48.898;8.308;2022-12-18T11:16:49;37.40;;;28.17;;
15633;SDS011;14654;48.898;8.308;2022-12-18T11:22:20;37.13;;;27.47;;
15633;SDS011;14654;48.898;8.308;2022-12-18T11:24:58;35.77;;;27.57;;
15633;SDS011;14654;48.898;8.308;2022-12-18T11:27:26;37.17;;;27.73;;
15633;SDS011;14654;48.898;8.308;2022-12-18T11:30:07;39.30;;;29.97;;
15633;SDS011;14654;48.898;8.308;2022-12-18T11:35:38;40.80;;;31.13;;
15633;SDS011;14654;48.898;8.308;2022-12-18T11:38:28;34.50;;;25.17;;
15633;SDS011;14654;48.898;8.308;2022-12-18T11:49:03;42.50;;;32.13;;
15633;SDS011;14654;48.898;8.308;2022-12-18T11:51:43;43.57;;;30.00;;
15633;SDS011;14654;48.898;8.308;2022-12-18T11:54:12;41.97;;;29.70;;
15633;SDS011;14654;48.898;8.308;2022-12-18T11:56:43;42.97;;;30.87;;
15633;SDS011;14654;48.898;8.308;2022-12-18T12:01:48;42.03;;;30.20;;
15633;SDS011;14654;48.898;8.308;2022-12-18T12:12:34;44.40;;;30.83;;
15633;SDS011;14654;48.898;8.308;2022-12-18T12:20:23;43.63;;;30.10;;
15633;SDS011;14654;48.898;8.308;2022-12-18T12:26:03;39.80;;;29.33;;
15633;SDS011;14654;48.898;8.308;2022-12-18T12:33:53;37.73;;;28.30;;
15633;SDS011;14654;48.898;8.308;2022-12-18T12:39:14;44.70;;;32.47;;
15633;SDS011;14654;48.898;8.308;2022-12-18T12:41:46;42.27;;;32.20;;
15633;SDS011;14654;48.898;8.308;2022-12-18T12:44:32;40.47;;;30.13;;
15633;SDS011;14654;48.898;8.308;2022-12-18T12:47:06;39.90;;;29.40;;
15633;SDS011;14654;48.898;8.308;2022-12-18T12:49:41;45.07;;;32.07;;
15633;SDS011;14654;48.898;8.308;2022-12-18T12:52:13;45.10;;;33.00;;
15633;SDS011;14654;48.898;8.308;2022-12-18T12:54:42;41.37;;;30.87;;
15633;SDS011;14654;48.898;8.308;2022-12-18T12:57:20;43.13;;;31.63;;
15633;SDS011;14654;48.898;8.308;2022-12-18T13:08:12;43.20;;;31.30;;
15633;SDS011;14654;48.898;8.308;2022-12-18T13:10:57;41.57;;;31.53;;
15633;SDS011;14654;48.898;8.308;2022-12-18T13:13:53;42.00;;;31.10;;
15633;SDS011;14654;48.898;8.308;2022-12-18T13:16:22;42.00;;;32.83;;
15633;SDS011;14654;48.898;8.308;2022-12-18T13:18:56;47.53;;;34.40;;
15633;SDS011;14654;48.898;8.308;2022-12-18T13:21:30;44.07;;;32.63;;
15633;SDS011;14654;48.898;8.308;2022-12-18T13:24:14;42.00;;;31.67;;
15633;SDS011;14654;48.898;8.308;2022-12-18T13:26:47;44.57;;;32.93;;
15633;SDS011;14654;48.898;8.308;2022-12-18T13:29:15;49.57;;;34.73;;
15633;SDS011;14654;48.898;8.308;2022-12-18T13:32:15;44.37;;;32.17;;
15633;SDS011;14654;48.898;8.308;2022-12-18T13:34:45;43.43;;;32.57;;
15633;SDS011;14654;48.898;8.308;2022-12-18T13:39:58;39.70;;;31.60;;
15633;SDS011;14654;48.898;8.308;2022-12-18T13:48:16;48.67;;;34.93;;
15633;SDS011;14654;48.898;8.308;2022-12-18T13:50:48;46.67;;;33.77;;
15633;SDS011;14654;48.898;8.308;2022-12-18T13:53:20;43.97;;;32.10;;
15633;SDS011;14654;48.898;8.308;2022-12-18T13:55:48;41.60;;;31.57;;
15633;SDS011;14654;48.898;8.308;2022-12-18T13:58:14;38.40;;;30.20;;
15633;SDS011;14654;48.898;8.308;2022-12-18T14:00:43;40.07;;;30.27;;
15633;SDS011;14654;48.898;8.308;2022-12-18T14:06:10;40.77;;;31.37;;
15633;SDS011;14654;48.898;8.308;2022-12-18T14:08:41;40.67;;;30.63;;
15633;SDS011;14654;48.898;8.308;2022-12-18T14:11:16;38.73;;;29.27;;
15633;SDS011;14654;48.898;8.308;2022-12-18T14:13:45;38.47;;;28.50;;
15633;SDS011;14654;48.898;8.308;2022-12-18T14:16:12;41.20;;;32.23;;
15633;SDS011;14654;48.898;8.308;2022-12-18T14:21:19;41.87;;;31.57;;
15633;SDS011;14654;48.898;8.308;2022-12-18T14:23:47;39.70;;;29.43;;
15633;SDS011;14654;48.898;8.308;2022-12-18T14:26:23;40.93;;;32.07;;
15633;SDS011;14654;48.898;8.308;2022-12-18T14:28:57;44.43;;;32.13;;
15633;SDS011;14654;48.898;8.308;2022-12-18T14:31:26;45.03;;;31.60;;
15633;SDS011;14654;48.898;8.308;2022-12-18T14:33:54;42.83;;;32.67;;
15633;SDS011;14654;48.898;8.308;2022-12-18T14:36:21;39.97;;;31.70;;
15633;SDS011;14654;48.898;8.308;2022-12-18T14:38:52;40.67;;;31.57;;
15633;SDS011;14654;48.898;8.308;2022-12-18T14:41:19;44.17;;;32.23;;
15633;SDS011;14654;48.898;8.308;2022-12-18T14:43:52;44.07;;;33.03;;
15633;SDS011;14654;48.898;8.308;2022-12-18T14:51:47;40.67;;;32.07;;
15633;SDS011;14654;48.898;8.308;2022-12-18T14:54:15;41.67;;;32.00;;
15633;SDS011;14654;48.898;8.308;2022-12-18T14:56:44;42.57;;;32.17;;
15633;SDS011;14654;48.898;8.308;2022-12-18T14:59:19;45.17;;;32.27;;
15633;SDS011;14654;48.898;8.308;2022-12-18T15:02:10;39.53;;;29.80;;
15633;SDS011;14654;48.898;8.308;2022-12-18T15:04:39;46.63;;;32.30;;
15633;SDS011;14654;48.898;8.308;2022-12-18T15:07:26;44.90;;;32.27;;
15633;SDS011;14654;48.898;8.308;2022-12-18T15:12:47;46.37;;;33.00;;
15633;SDS011;14654;48.898;8.308;2022-12-18T15:17:58;44.70;;;31.67;;
15633;SDS011;14654;48.898;8.308;2022-12-18T15:20:39;44.20;;;32.90;;
15633;SDS011;14654;48.898;8.308;2022-12-18T15:23:17;44.23;;;32.27;;
15633;SDS011;14654;48.898;8.308;2022-12-18T15:25:45;45.40;;;32.37;;
15633;SDS011;14654;48.898;8.308;2022-12-18T15:28:16;43.13;;;31.53;;
15633;SDS011;14654;48.898;8.308;2022-12-18T15:33:59;45.70;;;31.63;;
15633;SDS011;14654;48.898;8.308;2022-12-18T15:36:45;45.27;;;31.93;;
15633;SDS011;14654;48.898;8.308;2022-12-18T15:39:11;44.23;;;32.13;;
15633;SDS011;14654;48.898;8.308;2022-12-18T15:41:37;43.30;;;31.60;;
15633;SDS011;14654;48.898;8.308;2022-12-18T15:44:03;40.83;;;29.67;;
15633;SDS011;14654;48.898;8.308;2022-12-18T15:46:46;43.93;;;29.17;;
15633;SDS011;14654;48.898;8.308;2022-12-18T15:49:11;44.57;;;31.83;;
15633;SDS011;14654;48.898;8.308;2022-12-18T15:51:36;43.70;;;31.73;;
15633;SDS011;14654;48.898;8.308;2022-12-18T15:54:04;42.27;;;30.73;;
15633;SDS011;14654;48.898;8.308;2022-12-18T15:56:36;45.43;;;31.63;;
15633;SDS011;14654;48.898;8.308;2022-12-18T15:59:20;44.97;;;31.77;;
15633;SDS011;14654;48.898;8.308;2022-12-18T16:01:47;46.73;;;33.70;;
15633;SDS011;14654;48.898;8.308;2022-12-18T16:04:14;44.37;;;31.90;;
15633;SDS011;14654;48.898;8.308;2022-12-18T16:06:41;41.57;;;31.93;;
15633;SDS011;14654;48.898;8.308;2022-12-18T16:09:06;44.33;;;32.17;;
15633;SDS011;14654;48.898;8.308;2022-12-18T16:11:33;42.77;;;31.97;;
15633;SDS011;14654;48.898;8.308;2022-12-18T16:14:20;42.17;;;30.43;;
15633;SDS011;14654;48.898;8.308;2022-12-18T16:16:47;44.53;;;32.83;;
15633;SDS011;14654;48.898;8.308;2022-12-18T16:19:14;45.83;;;33.43;;
15633;SDS011;14654;48.898;8.308;2022-12-18T16:21:39;50.80;;;37.10;;
15633;SDS011;14654;48.898;8.308;2022-12-18T16:24:04;51.13;;;37.20;;
15633;SDS011;14654;48.898;8.308;2022-12-18T16:26:30;48.90;;;35.83;;
15633;SDS011;14654;48.898;8.308;2022-12-18T16:28:55;50.40;;;37.47;;
15633;SDS011;14654;48.898;8.308;2022-12-18T16:31:21;45.40;;;34.40;;
15633;SDS011;14654;48.898;8.308;2022-12-18T16:33:46;44.23;;;33.80;;
15633;SDS011;14654;48.898;8.308;2022-12-18T16:36:11;45.70;;;34.87;;
15633;SDS011;14654;48.898;8.308;2022-12-18T16:38:37;46.23;;;33.73;;
15633;SDS011;14654;48.898;8.308;2022-12-18T16:41:04;45.10;;;34.07;;
15633;SDS011;14654;48.898;8.308;2022-12-18T16:44:01;42.87;;;32.97;;
15633;SDS011;14654;48.898;8.308;2022-12-18T16:46:27;46.03;;;33.63;;